createdAt,value
2022-10-22T00:01:04.759Z,100.00
2022-10-22T00:03:32.315Z,100.00
2022-10-22T00:06:00.428Z,100.00
2022-10-22T00:08:27.917Z,100.00
2022-10-22T00:10:55.549Z,100.00
2022-10-22T00:13:23.588Z,100.00
2022-10-22T00:15:50.716Z,100.00
2022-10-22T00:18:17.805Z,100.00
2022-10-22T00:20:44.893Z,100.00
2022-10-22T00:23:11.982Z,100.00
2022-10-22T00:25:39.395Z,100.00
2022-10-22T00:28:06.773Z,100.00
2022-10-22T00:30:33.891Z,100.00
2022-10-22T00:33:01.082Z,100.00
2022-10-22T00:35:28.225Z,100.00
2022-10-22T00:37:55.648Z,100.00
2022-10-22T00:40:23.331Z,100.00
2022-10-22T00:42:50.623Z,100.00
2022-10-22T00:45:24.104Z,100.00
2022-10-22T00:48:00.309Z,100.00
2022-10-22T00:50:34.334Z,100.00
2022-10-22T00:53:06.940Z,100.00
2022-10-22T00:55:34.816Z,100.00
2022-10-22T00:58:02.958Z,100.00
2022-10-22T01:00:31.165Z,100.00
2022-10-22T01:02:59.407Z,100.00
2022-10-22T01:05:43.624Z,100.00
2022-10-22T01:08:35.357Z,100.00
2022-10-22T01:11:42.761Z,100.00
2022-10-22T01:14:26.260Z,100.00
2022-10-22T01:17:08.273Z,100.00
2022-10-22T01:20:54.665Z,100.00
2022-10-22T01:24:03.584Z,100.00
2022-10-22T01:26:57.347Z,100.00
2022-10-22T01:30:02.802Z,100.00
2022-10-22T01:32:39.952Z,100.00
2022-10-22T01:35:13.142Z,100.00
2022-10-22T01:37:54.526Z,100.00
2022-10-22T01:40:23.933Z,100.00
2022-10-22T01:43:03.696Z,100.00
2022-10-22T01:45:42.445Z,100.00
2022-10-22T01:48:30.810Z,100.00
2022-10-22T01:51:50.275Z,100.00
2022-10-22T01:55:01.659Z,100.00
2022-10-22T01:58:23.108Z,100.00
2022-10-22T02:01:46.397Z,100.00
2022-10-22T02:04:44.719Z,100.00
2022-10-22T02:07:17.589Z,100.00
2022-10-22T02:09:46.845Z,100.00
2022-10-22T02:12:16.434Z,100.00
2022-10-22T02:14:45.773Z,100.00
2022-10-22T02:17:19.253Z,100.00
2022-10-22T02:20:01.858Z,100.00
2022-10-22T02:22:30.057Z,100.00
2022-10-22T02:24:57.445Z,100.00
2022-10-22T02:27:51.369Z,100.00
2022-10-22T02:30:22.403Z,100.00
2022-10-22T02:33:11.812Z,100.00
2022-10-22T02:35:42.333Z,100.00
2022-10-22T02:38:11.636Z,100.00
2022-10-22T02:40:39.495Z,100.00
2022-10-22T02:43:07.228Z,100.00
2022-10-22T02:45:35.017Z,100.00
2022-10-22T02:48:03.437Z,100.00
2022-10-22T02:50:30.680Z,100.00
2022-10-22T02:52:57.783Z,100.00
2022-10-22T02:55:25.383Z,100.00
2022-10-22T02:57:52.830Z,100.00
2022-10-22T03:00:20.398Z,100.00
2022-10-22T03:02:47.554Z,100.00
2022-10-22T03:05:14.639Z,100.00
2022-10-22T03:07:42.231Z,100.00
2022-10-22T03:10:09.951Z,100.00
2022-10-22T03:12:37.027Z,100.00
2022-10-22T03:15:05.108Z,100.00
2022-10-22T03:17:32.203Z,100.00
2022-10-22T03:19:59.273Z,100.00
2022-10-22T03:22:32.590Z,100.00
2022-10-22T03:25:07.941Z,100.00
2022-10-22T03:27:39.066Z,100.00
2022-10-22T03:30:08.669Z,100.00
2022-10-22T03:32:35.755Z,100.00
2022-10-22T03:35:06.154Z,100.00
2022-10-22T03:37:35.514Z,100.00
2022-10-22T03:40:06.408Z,100.00
2022-10-22T03:42:33.702Z,100.00
2022-10-22T03:45:00.834Z,100.00
2022-10-22T03:47:28.048Z,100.00
2022-10-22T03:49:55.143Z,100.00
2022-10-22T03:52:22.248Z,100.00
2022-10-22T03:54:49.378Z,100.00
2022-10-22T03:57:16.534Z,100.00
2022-10-22T03:59:46.762Z,100.00
2022-10-22T04:02:14.592Z,100.00
2022-10-22T04:04:41.822Z,100.00
2022-10-22T04:07:09.324Z,100.00
2022-10-22T04:09:39.194Z,100.00
2022-10-22T04:12:07.956Z,100.00
2022-10-22T04:14:35.172Z,100.00
2022-10-22T04:17:02.387Z,100.00
2022-10-22T04:19:29.679Z,100.00
2022-10-22T04:21:59.843Z,100.00
2022-10-22T04:24:27.335Z,100.00
2022-10-22T04:26:55.794Z,100.00
2022-10-22T04:29:23.845Z,100.00
2022-10-22T04:31:51.111Z,100.00
2022-10-22T04:34:18.269Z,100.00
2022-10-22T04:36:45.519Z,100.00
2022-10-22T04:39:37.576Z,100.00
2022-10-22T04:42:05.868Z,100.00
2022-10-22T04:44:33.374Z,100.00
2022-10-22T04:47:00.526Z,100.00
2022-10-22T04:49:33.870Z,100.00
2022-10-22T04:52:03.435Z,100.00
2022-10-22T04:54:33.096Z,100.00
2022-10-22T04:57:00.524Z,100.00
2022-10-22T04:59:27.822Z,100.00
2022-10-22T05:01:55.443Z,100.00
2022-10-22T05:04:22.566Z,100.00
2022-10-22T05:06:49.810Z,100.00
2022-10-22T05:09:21.121Z,100.00
2022-10-22T05:11:52.360Z,100.00
2022-10-22T05:14:25.269Z,100.00
2022-10-22T05:16:53.504Z,100.00
2022-10-22T05:19:30.991Z,100.00
2022-10-22T05:22:02.784Z,100.00
2022-10-22T05:24:33.477Z,100.00
2022-10-22T05:27:01.189Z,100.00
2022-10-22T05:29:28.548Z,100.00
2022-10-22T05:31:56.121Z,100.00
2022-10-22T05:34:23.319Z,100.00
2022-10-22T05:36:54.437Z,100.00
2022-10-22T05:39:22.082Z,100.00
2022-10-22T05:41:49.363Z,100.00
2022-10-22T05:44:16.528Z,100.00
2022-10-22T05:47:32.020Z,100.00
2022-10-22T05:52:00.438Z,100.00
2022-10-22T05:56:28.013Z,100.00
2022-10-22T05:58:57.255Z,100.00
2022-10-22T06:01:30.318Z,100.00
2022-10-22T06:04:03.067Z,100.00
2022-10-22T06:06:49.381Z,100.00
2022-10-22T06:09:31.339Z,100.00
2022-10-22T06:11:59.356Z,100.00
2022-10-22T06:14:28.702Z,100.00
2022-10-22T06:16:55.966Z,100.00
2022-10-22T06:19:26.733Z,100.00
2022-10-22T06:21:54.455Z,100.00
2022-10-22T06:24:21.780Z,100.00
2022-10-22T06:26:53.326Z,100.00
2022-10-22T06:29:21.084Z,100.00
2022-10-22T06:31:48.995Z,100.00
2022-10-22T06:34:18.815Z,100.00
2022-10-22T06:37:12.101Z,100.00
2022-10-22T06:39:39.230Z,100.00
2022-10-22T06:42:06.407Z,100.00
2022-10-22T06:44:35.232Z,100.00
2022-10-22T06:47:02.431Z,100.00
2022-10-22T06:49:29.530Z,100.00
2022-10-22T06:52:21.702Z,100.00
2022-10-22T06:54:48.797Z,100.00
2022-10-22T06:57:15.913Z,100.00
2022-10-22T06:59:42.977Z,100.00
2022-10-22T07:02:10.806Z,100.00
2022-10-22T07:04:38.044Z,100.00
2022-10-22T07:07:05.140Z,100.00
2022-10-22T07:09:32.228Z,100.00
2022-10-22T07:11:59.297Z,100.00
2022-10-22T07:14:26.430Z,100.00
2022-10-22T07:16:53.562Z,100.00
2022-10-22T07:19:20.662Z,100.00
2022-10-22T07:21:47.823Z,100.00
2022-10-22T07:24:14.926Z,100.00
2022-10-22T07:26:42.498Z,100.00
2022-10-22T07:29:10.091Z,100.00
2022-10-22T07:31:37.225Z,100.00
2022-10-22T07:34:04.430Z,100.00
2022-10-22T07:36:31.573Z,100.00
2022-10-22T07:39:00.731Z,100.00
2022-10-22T07:41:30.562Z,100.00
2022-10-22T07:43:59.037Z,100.00
2022-10-22T07:46:26.957Z,100.00
2022-10-22T07:48:54.547Z,100.00
2022-10-22T07:51:21.994Z,100.00
2022-10-22T07:53:49.334Z,100.00
2022-10-22T07:56:17.734Z,100.00
2022-10-22T07:58:45.020Z,100.00
2022-10-22T08:01:12.341Z,100.00
2022-10-22T08:03:39.772Z,100.00
2022-10-22T08:06:07.959Z,100.00
2022-10-22T08:08:35.314Z,100.00
2022-10-22T08:11:02.855Z,100.00
2022-10-22T08:13:30.878Z,100.00
2022-10-22T08:16:00.852Z,100.00
2022-10-22T08:18:28.235Z,100.00
2022-10-22T08:20:55.551Z,100.00
2022-10-22T08:23:26.013Z,100.00
2022-10-22T08:25:55.388Z,100.00
2022-10-22T08:28:22.834Z,100.00
2022-10-22T08:30:50.770Z,100.00
2022-10-22T08:33:18.451Z,100.00
2022-10-22T08:35:53.067Z,100.00
2022-10-22T08:38:27.429Z,100.00
2022-10-22T08:41:15.225Z,100.00
2022-10-22T08:44:07.131Z,100.00
2022-10-22T08:47:13.122Z,100.00
2022-10-22T08:49:43.345Z,100.00
2022-10-22T08:52:19.015Z,100.00
2022-10-22T08:54:54.366Z,100.00
2022-10-22T08:57:54.066Z,100.00
2022-10-22T09:00:25.354Z,100.00
2022-10-22T09:03:36.575Z,100.00
2022-10-22T09:06:14.361Z,100.00
2022-10-22T09:08:45.844Z,100.00
2022-10-22T09:11:12.942Z,100.00
2022-10-22T09:13:46.333Z,100.00
2022-10-22T09:16:42.883Z,100.00
2022-10-22T09:19:51.397Z,100.00
2022-10-22T09:25:27.450Z,100.00
2022-10-22T09:27:58.253Z,100.00
2022-10-22T09:30:31.852Z,100.00
2022-10-22T09:33:26.008Z,100.00
2022-10-22T09:36:03.630Z,100.00
2022-10-22T09:38:41.815Z,100.00
2022-10-22T09:41:09.723Z,100.00
2022-10-22T09:43:37.119Z,100.00
2022-10-22T09:46:17.151Z,100.00
2022-10-22T09:48:51.869Z,100.00
2022-10-22T09:51:36.501Z,100.00
2022-10-22T09:54:32.071Z,100.00
2022-10-22T09:57:18.026Z,100.00
2022-10-22T09:59:50.195Z,100.00
2022-10-22T10:02:37.505Z,100.00
2022-10-22T10:05:08.554Z,100.00
2022-10-22T10:07:36.987Z,100.00
2022-10-22T10:10:40.046Z,100.00
2022-10-22T10:13:30.166Z,100.00
2022-10-22T10:16:16.080Z,100.00
2022-10-22T10:19:45.378Z,100.00
2022-10-22T10:22:58.617Z,100.00
2022-10-22T10:25:55.844Z,100.00
2022-10-22T10:28:56.881Z,100.00
2022-10-22T10:32:03.139Z,100.00
2022-10-22T10:35:12.865Z,100.00
2022-10-22T10:38:19.468Z,100.00
2022-10-22T10:41:43.545Z,100.00
2022-10-22T10:44:47.412Z,100.00
2022-10-22T10:48:06.902Z,100.00
2022-10-22T10:51:51.587Z,100.00
2022-10-22T10:54:45.179Z,100.00
2022-10-22T10:57:29.343Z,100.00
2022-10-22T11:00:21.110Z,100.00
2022-10-22T11:03:39.805Z,100.00
2022-10-22T11:06:12.797Z,100.00
2022-10-22T11:08:49.920Z,100.00
2022-10-22T11:11:55.948Z,100.00
2022-10-22T11:14:38.032Z,100.00
2022-10-22T11:17:23.061Z,95.60
2022-10-22T11:20:24.185Z,95.48
2022-10-22T11:23:23.049Z,88.73
2022-10-22T11:25:50.963Z,88.02
2022-10-22T11:28:39.482Z,85.11
2022-10-22T11:31:16.058Z,85.26
2022-10-22T11:34:32.693Z,87.43
2022-10-22T11:37:05.068Z,79.87
2022-10-22T11:39:50.967Z,79.82
2022-10-22T11:42:23.728Z,81.77
2022-10-22T11:45:14.210Z,85.40
2022-10-22T11:48:10.469Z,86.34
2022-10-22T11:50:57.460Z,79.63
2022-10-22T11:53:37.536Z,66.54
2022-10-22T11:56:07.776Z,61.48
2022-10-22T11:58:39.256Z,58.88
2022-10-22T12:01:09.473Z,61.29
2022-10-22T12:03:59.070Z,53.57
2022-10-22T12:06:28.901Z,52.17
2022-10-22T12:09:04.904Z,50.68
2022-10-22T12:11:50.582Z,47.73
2022-10-22T12:14:27.938Z,48.08
2022-10-22T12:17:05.204Z,46.41
2022-10-22T12:19:46.670Z,38.96
2022-10-22T12:22:23.358Z,41.02
2022-10-22T12:24:54.605Z,40.38
2022-10-22T12:27:34.656Z,38.95
2022-10-22T12:30:18.096Z,42.03
2022-10-22T12:32:46.240Z,44.50
2022-10-22T12:35:24.137Z,46.01
2022-10-22T12:38:02.668Z,46.43
2022-10-22T12:40:34.755Z,48.01
2022-10-22T12:43:19.453Z,48.22
2022-10-22T12:45:50.267Z,47.89
2022-10-22T12:48:28.766Z,49.13
2022-10-22T12:51:03.849Z,48.13
2022-10-22T12:53:35.339Z,50.65
2022-10-22T12:56:21.395Z,49.42
2022-10-22T12:59:20.878Z,49.50
2022-10-22T13:01:51.474Z,51.95
2022-10-22T13:04:38.201Z,46.48
2022-10-22T13:07:18.337Z,44.02
2022-10-22T13:10:00.204Z,41.30
2022-10-22T13:12:36.498Z,38.04
2022-10-22T13:15:35.198Z,37.42
2022-10-22T13:18:06.335Z,35.60
2022-10-22T13:20:37.271Z,34.28
2022-10-22T13:23:06.361Z,32.82
2022-10-22T13:25:39.655Z,32.17
2022-10-22T13:28:06.866Z,32.27
2022-10-22T13:30:38.492Z,33.01
2022-10-22T13:33:26.326Z,31.84
2022-10-22T13:35:56.509Z,30.84
2022-10-22T13:38:29.223Z,30.69
2022-10-22T13:40:57.446Z,31.37
2022-10-22T13:43:25.645Z,31.60
2022-10-22T13:45:59.154Z,29.43
2022-10-22T13:48:29.263Z,27.65
2022-10-22T13:50:56.589Z,29.56
2022-10-22T13:53:51.681Z,28.65
2022-10-22T13:56:21.942Z,26.67
2022-10-22T13:58:50.476Z,25.95
2022-10-22T14:01:26.508Z,27.81
2022-10-22T14:03:58.376Z,27.93
2022-10-22T14:06:29.862Z,26.64
2022-10-22T14:09:03.624Z,26.01
2022-10-22T14:11:32.520Z,26.08
2022-10-22T14:13:59.760Z,25.48
2022-10-22T14:16:31.172Z,25.54
2022-10-22T14:18:59.577Z,24.54
2022-10-22T14:21:30.507Z,25.72
2022-10-22T14:23:57.653Z,25.12
2022-10-22T14:26:32.810Z,24.73
2022-10-22T14:29:09.481Z,24.85
2022-10-22T14:31:44.034Z,25.49
2022-10-22T14:34:15.851Z,25.50
2022-10-22T14:36:43.817Z,26.23
2022-10-22T14:39:13.099Z,28.00
2022-10-22T14:41:42.445Z,27.24
2022-10-22T14:44:14.240Z,28.52
2022-10-22T14:46:43.876Z,26.82
2022-10-22T14:49:11.075Z,26.89
2022-10-22T14:51:38.481Z,27.61
2022-10-22T14:54:05.852Z,26.28
2022-10-22T14:56:33.754Z,27.53
2022-10-22T14:59:01.046Z,29.21
2022-10-22T15:01:28.224Z,27.98
2022-10-22T15:03:55.357Z,28.32
2022-10-22T15:06:22.865Z,29.99
2022-10-22T15:08:50.797Z,29.34
2022-10-22T15:11:18.089Z,28.33
2022-10-22T15:13:45.306Z,30.75
2022-10-22T15:16:16.495Z,32.38
2022-10-22T15:18:43.685Z,34.20
2022-10-22T15:21:19.416Z,34.73
2022-10-22T15:23:48.360Z,34.15
2022-10-22T15:26:16.255Z,32.48
2022-10-22T15:28:44.297Z,32.32
2022-10-22T15:31:15.164Z,31.46
2022-10-22T15:33:43.826Z,32.74
2022-10-22T15:36:17.013Z,32.74
2022-10-22T15:38:44.101Z,33.07
2022-10-22T15:41:13.449Z,35.89
2022-10-22T15:43:40.727Z,37.75
2022-10-22T15:46:19.791Z,38.37
2022-10-22T15:48:46.971Z,39.34
2022-10-22T15:51:18.746Z,42.83
2022-10-22T15:53:56.929Z,44.38
2022-10-22T15:56:27.813Z,47.22
2022-10-22T15:59:00.926Z,48.63
2022-10-22T16:01:28.650Z,52.16
2022-10-22T16:04:02.833Z,56.10
2022-10-22T16:06:48.585Z,57.24
2022-10-22T16:09:20.780Z,61.84
2022-10-22T16:11:49.214Z,68.39
2022-10-22T16:14:20.209Z,68.32
2022-10-22T16:16:53.069Z,72.56
2022-10-22T16:19:25.431Z,78.12
2022-10-22T16:21:55.796Z,86.70
2022-10-22T16:24:23.506Z,89.39
2022-10-22T16:26:52.627Z,90.45
2022-10-22T16:29:20.299Z,94.25
2022-10-22T16:31:47.635Z,94.02
2022-10-22T16:34:14.853Z,99.17
2022-10-22T16:36:42.231Z,100.00
2022-10-22T16:39:10.041Z,100.00
2022-10-22T16:41:37.358Z,100.00
2022-10-22T16:44:08.682Z,100.00
2022-10-22T16:46:39.857Z,100.00
2022-10-22T16:49:07.938Z,100.00
2022-10-22T16:51:35.855Z,100.00
2022-10-22T16:54:05.552Z,100.00
2022-10-22T16:56:36.567Z,100.00
2022-10-22T16:59:04.716Z,100.00
2022-10-22T17:01:34.002Z,100.00
2022-10-22T17:04:03.994Z,100.00
2022-10-22T17:06:31.413Z,100.00
2022-10-22T17:08:59.100Z,100.00
2022-10-22T17:11:26.441Z,100.00
2022-10-22T17:13:54.714Z,100.00
2022-10-22T17:16:24.989Z,100.00
2022-10-22T17:18:55.022Z,100.00
2022-10-22T17:21:23.787Z,100.00
2022-10-22T17:23:58.380Z,100.00
2022-10-22T17:26:29.074Z,100.00
2022-10-22T17:28:56.639Z,100.00
2022-10-22T17:31:34.210Z,100.00
2022-10-22T17:34:01.826Z,100.00
2022-10-22T17:36:34.866Z,100.00
2022-10-22T17:39:07.619Z,100.00
2022-10-22T17:41:37.814Z,100.00
2022-10-22T17:44:12.143Z,100.00
2022-10-22T17:46:39.702Z,100.00
2022-10-22T17:49:18.053Z,100.00
2022-10-22T17:51:46.202Z,100.00
2022-10-22T17:54:14.609Z,100.00
2022-10-22T17:56:42.047Z,100.00
2022-10-22T17:59:15.830Z,100.00
2022-10-22T18:01:45.801Z,100.00
2022-10-22T18:04:20.086Z,100.00
2022-10-22T18:06:50.053Z,100.00
2022-10-22T18:09:19.391Z,100.00
2022-10-22T18:11:49.767Z,100.00
2022-10-22T18:14:20.889Z,100.00
2022-10-22T18:16:48.899Z,100.00
2022-10-22T18:19:22.513Z,100.00
2022-10-22T18:21:50.517Z,100.00
2022-10-22T18:24:18.480Z,100.00
2022-10-22T18:26:46.237Z,100.00
2022-10-22T18:29:18.422Z,100.00
2022-10-22T18:31:47.299Z,100.00
2022-10-22T18:34:16.551Z,100.00
2022-10-22T18:36:46.200Z,100.00
2022-10-22T18:39:38.504Z,100.00
2022-10-22T18:42:07.144Z,100.00
2022-10-22T18:44:35.800Z,100.00
2022-10-22T18:49:54.811Z,100.00
2022-10-22T18:52:25.031Z,100.00
2022-10-22T18:54:52.173Z,100.00
2022-10-22T18:57:19.354Z,100.00
2022-10-22T18:59:46.574Z,100.00
2022-10-22T19:02:17.061Z,100.00
2022-10-22T19:04:45.371Z,100.00
2022-10-22T19:07:12.717Z,100.00
2022-10-22T19:09:42.448Z,100.00
2022-10-22T19:12:10.290Z,100.00
2022-10-22T19:14:39.810Z,100.00
2022-10-22T19:17:07.158Z,100.00
2022-10-22T19:19:34.991Z,100.00
2022-10-22T19:22:02.155Z,100.00
2022-10-22T19:24:29.700Z,100.00
2022-10-22T19:26:57.011Z,100.00
2022-10-22T19:29:24.201Z,100.00
2022-10-22T19:31:51.487Z,100.00
2022-10-22T19:34:20.155Z,100.00
2022-10-22T19:37:13.320Z,100.00
2022-10-22T19:39:40.705Z,100.00
2022-10-22T19:42:07.927Z,100.00
2022-10-22T19:44:35.015Z,100.00
2022-10-22T19:47:02.129Z,100.00
2022-10-22T19:49:35.168Z,100.00
2022-10-22T19:52:02.679Z,100.00
2022-10-22T19:54:30.150Z,100.00
2022-10-22T19:56:57.347Z,100.00
2022-10-22T19:59:28.666Z,100.00
2022-10-22T20:01:58.443Z,100.00
2022-10-22T20:04:27.962Z,100.00
2022-10-22T20:06:55.532Z,100.00
2022-10-22T20:09:22.706Z,100.00
2022-10-22T20:11:50.136Z,100.00
2022-10-22T20:14:17.305Z,100.00
2022-10-22T20:16:44.615Z,100.00
2022-10-22T20:19:19.009Z,100.00
2022-10-22T20:26:31.282Z,100.00
2022-10-22T20:29:18.587Z,100.00
2022-10-22T20:31:59.708Z,100.00
2022-10-22T20:34:29.793Z,100.00
2022-10-22T20:36:59.273Z,100.00
2022-10-22T20:39:40.151Z,100.00
2022-10-22T20:42:07.389Z,100.00
2022-10-22T20:44:34.683Z,100.00
2022-10-22T20:47:01.860Z,100.00
2022-10-22T20:49:36.399Z,100.00
2022-10-22T20:52:03.629Z,100.00
2022-10-22T20:54:30.727Z,100.00
2022-10-22T20:56:58.339Z,100.00
2022-10-22T20:59:32.505Z,100.00
2022-10-22T21:02:03.323Z,100.00
2022-10-22T21:04:31.385Z,100.00
2022-10-22T21:06:58.574Z,100.00
2022-10-22T21:09:25.778Z,100.00
2022-10-22T21:14:26.227Z,100.00
2022-10-22T21:16:53.474Z,100.00
2022-10-22T21:19:22.565Z,100.00
2022-10-22T21:21:50.033Z,100.00
2022-10-22T21:24:17.892Z,100.00
2022-10-22T21:26:45.582Z,100.00
2022-10-22T21:29:13.531Z,100.00
2022-10-22T21:31:40.912Z,100.00
2022-10-22T21:34:08.325Z,100.00
2022-10-22T21:36:35.582Z,100.00
2022-10-22T21:39:03.257Z,100.00
2022-10-22T21:41:30.507Z,100.00
2022-10-22T21:43:58.173Z,100.00
2022-10-22T21:46:28.415Z,100.00
2022-10-22T21:49:01.952Z,100.00
2022-10-22T21:51:33.584Z,100.00
2022-10-22T21:54:01.019Z,100.00
2022-10-22T21:56:33.828Z,100.00
2022-10-22T21:59:04.729Z,100.00
2022-10-22T22:01:33.114Z,100.00
2022-10-22T22:04:00.918Z,100.00
2022-10-22T22:06:33.433Z,100.00
2022-10-22T22:09:03.983Z,100.00
2022-10-22T22:11:31.996Z,100.00
2022-10-22T22:14:00.331Z,100.00
2022-10-22T22:16:32.739Z,100.00
2022-10-22T22:19:06.693Z,100.00
2022-10-22T22:21:36.410Z,100.00
2022-10-22T22:24:04.357Z,100.00
2022-10-22T22:26:32.569Z,100.00
2022-10-22T22:29:01.181Z,100.00
2022-10-22T22:31:33.408Z,100.00
2022-10-22T22:34:12.662Z,100.00
2022-10-22T22:36:53.597Z,100.00
2022-10-22T22:39:23.543Z,100.00
2022-10-22T22:41:51.534Z,100.00
2022-10-22T22:44:18.859Z,100.00
2022-10-22T22:46:46.190Z,100.00
2022-10-22T22:49:14.492Z,100.00
2022-10-22T22:51:43.391Z,100.00
2022-10-22T22:54:11.307Z,100.00
2022-10-22T22:56:39.158Z,100.00
2022-10-22T22:59:06.908Z,100.00
2022-10-22T23:01:38.269Z,100.00
2022-10-22T23:04:13.030Z,100.00
2022-10-22T23:06:40.701Z,100.00
2022-10-22T23:09:12.350Z,100.00
2022-10-22T23:11:42.502Z,100.00
2022-10-22T23:14:14.707Z,100.00
2022-10-22T23:16:50.068Z,100.00
2022-10-22T23:19:22.171Z,100.00
2022-10-22T23:21:56.527Z,100.00
2022-10-22T23:24:28.964Z,100.00
2022-10-22T23:27:02.388Z,100.00
2022-10-22T23:29:34.279Z,100.00
2022-10-22T23:32:05.186Z,100.00
2022-10-22T23:34:33.011Z,100.00
2022-10-22T23:37:00.695Z,100.00
2022-10-22T23:39:29.633Z,100.00
2022-10-22T23:41:58.145Z,100.00
2022-10-22T23:44:25.935Z,100.00
2022-10-22T23:46:53.285Z,100.00
2022-10-22T23:49:20.789Z,100.00
2022-10-22T23:51:47.929Z,100.00
2022-10-22T23:54:18.554Z,100.00
2022-10-22T23:56:46.843Z,100.00
